Time;durP1;ratioP1;P1;durP2;ratioP2;P2;SDS_P1;SDS_P2;PMS_P1;PMS_P2;Temp;Humidity;BMP_temperature;BMP_pressure;BME280_temperature;BME280_humidity;BME280_pressure;Samples;Min_cycle;Max_cycle;Signal;HPM_P1;HPM_P2
2022/05/30 00:01:21;;;;;;;6.10;1.90;;;;;;;9.43;76.27;101306.44;5036249;28;20018;-79
2022/05/30 00:03:47;;;;;;;9.00;2.00;;;;;;;9.40;74.93;101307.47;5036778;28;20077;-79
2022/05/30 00:06:19;;;;;;;8.23;2.03;;;;;;;9.38;75.58;101304.09;5044421;27;20025;-79
2022/05/30 00:08:44;;;;;;;5.47;1.75;;;;;;;9.33;75.13;101300.88;5036890;28;20040;-80
2022/05/30 00:11:12;;;;;;;7.40;2.03;;;;;;;9.29;75.02;101301.16;5036448;28;20013;-79
2022/05/30 00:13:38;;;;;;;7.10;1.88;;;;;;;9.25;75.18;101300.53;5035503;28;20025;-79
2022/05/30 00:16:10;;;;;;;8.00;1.73;;;;;;;9.22;75.90;101303.38;5036760;28;20085;-79
2022/05/30 00:18:35;;;;;;;7.60;2.28;;;;;;;9.22;74.57;101306.00;5037824;28;20049;-80
2022/05/30 00:21:01;;;;;;;7.78;2.17;;;;;;;9.18;75.11;101299.22;5036086;28;20041;-80
2022/05/30 00:23:26;;;;;;;10.57;2.47;;;;;;;9.19;75.08;101300.91;5036342;28;20018;-80
2022/05/30 00:25:51;;;;;;;6.05;2.05;;;;;;;9.16;75.11;101299.31;5035887;28;20026;-79
2022/05/30 00:28:17;;;;;;;7.65;2.03;;;;;;;9.13;75.67;101309.25;5035966;28;20018;-79
2022/05/30 00:30:44;;;;;;;7.43;2.78;;;;;;;9.10;76.68;101301.50;5035891;28;20056;-80
2022/05/30 00:33:10;;;;;;;7.60;2.20;;;;;;;9.08;76.01;101296.28;5034640;28;20014;-79
2022/05/30 00:35:36;;;;;;;7.03;2.08;;;;;;;9.09;76.20;101297.97;5025723;28;20041;-80
2022/05/30 00:38:01;;;;;;;4.97;2.22;;;;;;;9.08;77.36;101294.50;5021940;28;20018;-80
2022/05/30 00:40:26;;;;;;;8.20;2.27;;;;;;;9.06;77.18;101292.91;5037970;28;20021;-79
2022/05/30 00:42:51;;;;;;;8.23;2.30;;;;;;;9.08;76.72;101288.34;5020639;28;20312;-80
2022/05/30 00:45:17;;;;;;;7.40;2.30;;;;;;;9.04;76.79;101287.69;5033986;28;20355;-80
2022/05/30 00:47:43;;;;;;;6.33;2.10;;;;;;;9.05;76.61;101289.38;5039135;28;20026;-80
2022/05/30 00:50:09;;;;;;;6.28;1.88;;;;;;;9.03;76.96;101285.13;5028098;28;20297;-80
2022/05/30 00:52:40;;;;;;;7.80;2.28;;;;;;;9.00;76.52;101286.16;5027109;28;20037;-80
2022/05/30 00:55:18;;;;;;;5.28;2.08;;;;;;;8.97;76.94;101283.72;5038650;28;20022;-81
2022/05/30 00:57:46;;;;;;;7.55;2.10;;;;;;;8.97;77.16;101288.16;5037764;28;20086;-81
2022/05/30 01:00:19;;;;;;;11.07;2.40;;;;;;;8.97;77.26;101290.81;5022810;28;20152;-81
2022/05/30 01:02:45;;;;;;;8.02;2.50;;;;;;;8.98;76.59;101282.78;5036603;28;20041;-80
2022/05/30 01:08:00;;;;;;;5.00;2.25;;;;;;;8.95;77.95;101282.97;5027848;28;21977;-80
2022/05/30 01:10:26;;;;;;;8.23;2.55;;;;;;;8.95;77.07;101279.47;5035701;28;20034;-79
2022/05/30 01:12:54;;;;;;;10.32;2.53;;;;;;;8.94;77.47;101273.28;5034417;28;20060;-80
2022/05/30 01:15:24;;;;;;;10.10;2.45;;;;;;;8.96;77.17;101278.50;5028898;28;20031;-80
2022/05/30 01:18:04;;;;;;;8.68;2.75;;;;;;;8.94;77.56;101277.75;5035748;28;20081;-80
2022/05/30 01:20:42;;;;;;;6.50;2.25;;;;;;;8.93;77.81;101278.72;5036813;28;20022;-80
2022/05/30 01:23:27;;;;;;;11.98;2.60;;;;;;;8.94;77.46;101278.59;5035634;28;20014;-79
2022/05/30 01:25:55;;;;;;;9.43;2.40;;;;;;;8.89;78.01;101278.91;5035440;28;20017;-79
2022/05/30 01:28:48;;;;;;;11.43;2.75;;;;;;;8.90;77.88;101285.03;5038791;28;20048;-79
2022/05/30 01:31:16;;;;;;;6.32;2.30;;;;;;;8.88;78.05;101274.53;5035304;28;20041;-78
2022/05/30 01:33:42;;;;;;;7.97;2.25;;;;;;;8.88;78.21;101273.72;5035183;28;20010;-79
2022/05/30 01:36:07;;;;;;;9.40;2.63;;;;;;;8.87;78.29;101272.00;5035129;28;20034;-79
2022/05/30 01:38:33;;;;;;;11.65;2.90;;;;;;;8.88;78.29;101271.06;5041822;28;20063;-80
2022/05/30 01:41:00;;;;;;;9.63;2.40;;;;;;;8.81;78.56;101269.72;5035307;28;20014;-80
2022/05/30 01:43:25;;;;;;;11.25;3.03;;;;;;;8.78;79.01;101262.00;5041140;28;20062;-79
2022/05/30 01:45:51;;;;;;;9.50;3.05;;;;;;;8.79;78.81;101255.72;5041617;28;20030;-79
2022/05/30 01:48:16;;;;;;;15.60;3.70;;;;;;;8.78;79.68;101256.69;5035051;28;20018;-80
2022/05/30 01:50:41;;;;;;;9.85;2.53;;;;;;;8.73;79.30;101262.28;5039274;27;20034;-80
2022/05/30 01:53:07;;;;;;;10.38;3.10;;;;;;;8.75;80.31;101270.13;5034249;28;20053;-79
2022/05/30 01:55:33;;;;;;;8.13;2.38;;;;;;;8.72;80.42;101259.72;5024652;28;20013;-79
2022/05/30 01:57:58;;;;;;;9.25;2.60;;;;;;;8.70;80.21;101263.28;5034867;28;20044;-80
2022/05/30 02:00:23;;;;;;;8.25;2.90;;;;;;;8.74;80.08;101263.94;5034037;28;20071;-79
2022/05/30 02:02:49;;;;;;;7.13;2.78;;;;;;;8.71;80.59;101258.88;5034465;28;20041;-79
2022/05/30 02:05:14;;;;;;;8.23;3.10;;;;;;;8.69;80.38;101258.97;5034880;28;20052;-79
2022/05/30 02:07:40;;;;;;;7.00;2.92;;;;;;;8.70;80.21;101262.44;5040792;28;20026;-79
2022/05/30 02:10:05;;;;;;;6.50;3.37;;;;;;;8.70;81.39;101263.28;5037395;28;20039;-79
2022/05/30 02:12:31;;;;;;;6.38;2.75;;;;;;;8.70;81.18;101265.09;5034934;28;20297;-79
2022/05/30 02:14:56;;;;;;;9.23;3.33;;;;;;;8.72;80.74;101251.75;5034475;28;20033;-80
2022/05/30 02:17:21;;;;;;;10.73;3.33;;;;;;;8.72;81.04;101257.06;5035095;28;20052;-80
2022/05/30 02:19:46;;;;;;;11.00;3.45;;;;;;;8.74;80.99;101247.22;5034732;28;20288;-80
2022/05/30 02:22:16;;;;;;;8.35;3.45;;;;;;;8.70;81.26;101260.66;5035060;28;20022;-80
2022/05/30 02:24:41;;;;;;;9.40;3.40;;;;;;;8.73;81.20;101253.44;5042393;27;20030;-80
2022/05/30 02:27:08;;;;;;;10.60;3.22;;;;;;;8.70;80.89;101254.50;5038591;28;20033;-79
2022/05/30 02:29:34;;;;;;;5.50;3.20;;;;;;;8.72;81.82;101254.41;5034791;28;20018;-79
2022/05/30 02:31:59;;;;;;;9.85;3.55;;;;;;;8.72;81.62;101249.13;5034878;28;20049;-80
2022/05/30 02:37:09;;;;;;;9.52;3.70;;;;;;;8.69;81.18;101260.75;5037646;28;20075;-80
2022/05/30 02:39:34;;;;;;;10.73;4.45;;;;;;;8.66;81.01;101240.59;5038046;28;20029;-80
2022/05/30 02:41:59;;;;;;;11.80;4.85;;;;;;;8.65;81.42;101252.13;5025133;28;20030;-81
2022/05/30 02:44:26;;;;;;;6.95;3.90;;;;;;;8.65;81.50;101252.13;5032376;28;20044;-79
2022/05/30 02:46:57;;;;;;;9.10;4.10;;;;;;;8.66;81.57;101248.56;5018447;28;20030;-80
2022/05/30 02:49:23;;;;;;;9.45;4.63;;;;;;;8.64;81.26;101253.09;5038684;27;20097;-81
2022/05/30 02:51:49;;;;;;;13.05;4.63;;;;;;;8.64;81.83;101244.28;5038006;28;20073;-81
2022/05/30 02:54:15;;;;;;;10.20;4.68;;;;;;;8.60;81.68;101248.94;5023912;28;20018;-80
2022/05/30 02:56:42;;;;;;;10.60;4.22;;;;;;;8.59;82.00;101244.56;5048908;27;20044;-80
2022/05/30 02:59:08;;;;;;;11.52;4.63;;;;;;;8.58;81.14;101250.81;5044716;27;20017;-79
2022/05/30 03:01:34;;;;;;;8.90;4.50;;;;;;;8.53;81.51;101244.97;5036422;27;20037;-80
2022/05/30 03:04:05;;;;;;;9.93;4.53;;;;;;;8.53;81.46;101244.97;5037861;28;20036;-80
2022/05/30 03:06:30;;;;;;;11.98;4.80;;;;;;;8.46;81.33;101244.50;5037764;28;20080;-81
2022/05/30 03:08:58;;;;;;;9.38;4.30;;;;;;;8.48;81.88;101244.41;5039477;28;20049;-81
2022/05/30 03:11:23;;;;;;;12.35;4.85;;;;;;;8.46;81.47;101254.22;5040816;28;20060;-80
2022/05/30 03:13:49;;;;;;;15.70;4.80;;;;;;;8.45;81.55;101261.31;5037417;28;20022;-80
2022/05/30 03:16:15;;;;;;;10.93;4.85;;;;;;;8.41;81.72;101258.91;5041221;27;20037;-80
2022/05/30 03:18:40;;;;;;;16.17;4.72;;;;;;;8.41;81.48;101256.25;5023569;28;20032;-81
2022/05/30 03:21:06;;;;;;;12.05;4.88;;;;;;;8.41;82.01;101256.25;5037616;28;20022;-81
2022/05/30 03:23:31;;;;;;;9.23;4.90;;;;;;;8.40;82.23;101260.72;5036500;28;20040;-80
2022/05/30 03:25:57;;;;;;;12.13;5.20;;;;;;;8.34;81.57;101256.66;5024091;28;20022;-80
2022/05/30 03:28:23;;;;;;;13.27;4.90;;;;;;;8.32;81.92;101258.50;5036528;28;20042;-80
2022/05/30 03:30:48;;;;;;;12.77;5.55;;;;;;;8.31;81.85;101264.78;5018782;28;20034;-80
2022/05/30 03:33:13;;;;;;;8.35;4.80;;;;;;;8.30;82.41;101267.50;5033597;28;20026;-79
2022/05/30 03:35:39;;;;;;;12.57;4.57;;;;;;;8.33;82.24;101265.53;5037952;27;20042;-80
2022/05/30 03:38:06;;;;;;;11.98;5.43;;;;;;;8.29;82.25;101260.50;5031179;28;20041;-80
2022/05/30 03:40:31;;;;;;;12.30;5.40;;;;;;;8.26;82.21;101263.31;5037279;28;20029;-78
2022/05/30 03:42:57;;;;;;;11.32;4.25;;;;;;;8.25;82.00;101269.59;5037073;28;20971;-80
2022/05/30 03:45:22;;;;;;;11.48;4.55;;;;;;;8.24;81.96;101275.81;5037198;28;20042;-79
2022/05/30 03:47:48;;;;;;;14.68;5.28;;;;;;;8.21;82.19;101275.97;5036773;28;20042;-80
2022/05/30 03:50:22;;;;;;;11.98;6.13;;;;;;;8.18;82.83;101279.69;5036848;28;20041;-80
2022/05/30 03:52:48;;;;;;;14.82;6.20;;;;;;;8.19;82.75;101280.53;5036190;28;20010;-78
2022/05/30 03:55:16;;;;;;;16.05;5.88;;;;;;;8.18;82.95;101282.31;5036942;28;20048;-78
2022/05/30 03:57:41;;;;;;;13.52;5.32;;;;;;;8.15;82.70;101271.91;5022864;28;20064;-80
2022/05/30 04:00:17;;;;;;;11.90;5.30;;;;;;;8.14;83.15;101273.72;5037813;28;20021;-79
2022/05/30 04:02:43;;;;;;;12.48;5.65;;;;;;;8.18;83.33;101282.31;5035440;28;20026;-79
2022/05/30 04:05:09;;;;;;;10.10;5.60;;;;;;;8.21;83.23;101268.03;5034853;28;20078;-79
2022/05/30 04:07:35;;;;;;;10.68;5.60;;;;;;;8.23;82.98;101271.47;5037087;28;20026;-80
2022/05/30 04:10:00;;;;;;;13.43;6.25;;;;;;;8.21;83.53;101265.41;5023030;28;20025;-80
2022/05/30 04:12:25;;;;;;;12.63;5.63;;;;;;;8.26;83.09;101264.19;5044948;27;20045;-79
2022/05/30 04:14:59;;;;;;;18.48;6.05;;;;;;;8.29;83.42;101269.31;5039471;28;20056;-80
2022/05/30 04:17:25;;;;;;;13.20;6.00;;;;;;;8.28;83.82;101267.59;5036362;28;20018;-80
2022/05/30 04:19:50;;;;;;;14.18;5.75;;;;;;;8.28;83.09;101258.81;5040258;28;20021;-80
2022/05/30 04:22:16;;;;;;;11.90;5.93;;;;;;;8.29;83.28;101255.22;5037806;28;20082;-79
2022/05/30 04:24:41;;;;;;;9.45;5.45;;;;;;;8.31;82.77;101261.25;5036500;28;20503;-80
2022/05/30 04:27:07;;;;;;;14.18;5.90;;;;;;;8.31;83.39;101261.25;5036245;28;20021;-80
2022/05/30 04:29:33;;;;;;;12.55;5.95;;;;;;;8.29;83.35;101265.78;5035660;28;20045;-80
2022/05/30 04:32:02;;;;;;;14.18;5.75;;;;;;;8.30;82.94;101264.84;5036463;28;20037;-80
2022/05/30 04:34:27;;;;;;;14.52;6.38;;;;;;;8.29;83.07;101269.31;5036556;28;20019;-79
2022/05/30 04:36:53;;;;;;;18.23;6.60;;;;;;;8.29;82.81;101271.97;5035876;28;20046;-79
2022/05/30 04:39:18;;;;;;;11.25;5.40;;;;;;;8.27;82.93;101271.19;5034948;28;20037;-80
2022/05/30 04:41:43;;;;;;;12.82;6.03;;;;;;;8.26;82.74;101274.78;5025932;28;20100;-80
2022/05/30 04:44:08;;;;;;;13.43;6.32;;;;;;;8.28;82.94;101278.19;5033426;28;20029;-81
2022/05/30 04:46:34;;;;;;;12.18;5.90;;;;;;;8.24;83.27;101279.28;5034648;28;20097;-81
2022/05/30 04:49:00;;;;;;;18.00;6.43;;;;;;;8.26;83.04;101282.72;5034473;28;20081;-81
2022/05/30 04:51:26;;;;;;;12.70;6.50;;;;;;;8.29;83.36;101279.03;5035575;28;20021;-82
2022/05/30 04:53:51;;;;;;;14.18;6.13;;;;;;;8.33;83.20;101285.84;5035428;28;20077;-81
2022/05/30 04:56:19;;;;;;;12.43;6.53;;;;;;;8.39;83.37;101274.03;5035557;28;20041;-81
2022/05/30 04:58:45;;;;;;;16.67;6.90;;;;;;;8.49;83.28;101283.16;5024656;28;20048;-81
2022/05/30 05:01:10;;;;;;;17.52;6.75;;;;;;;8.54;83.34;101282.88;5033950;28;20034;-81
2022/05/30 05:03:38;;;;;;;19.50;7.15;;;;;;;8.63;83.10;101284.97;5035884;28;20022;-79
2022/05/30 05:06:04;;;;;;;17.17;7.00;;;;;;;8.74;82.94;101279.84;5033389;28;20022;-81
2022/05/30 05:08:47;;;;;;;15.55;7.28;;;;;;;8.81;82.23;101277.66;5035567;28;20026;-81
2022/05/30 05:11:16;;;;;;;14.60;6.63;;;;;;;8.88;81.76;101277.19;5035355;28;20045;-81
2022/05/30 05:13:41;;;;;;;16.13;6.55;;;;;;;8.95;81.88;101282.97;5035574;28;20076;-80
2022/05/30 05:16:06;;;;;;;12.95;6.97;;;;;;;8.99;81.15;101281.84;5035062;28;20086;-81
2022/05/30 05:18:32;;;;;;;12.50;7.05;;;;;;;9.02;82.54;101284.25;5038583;28;20038;-80
2022/05/30 05:20:57;;;;;;;14.73;6.80;;;;;;;9.10;81.25;101282.94;5035460;28;20049;-80
2022/05/30 05:23:22;;;;;;;20.00;6.88;;;;;;;9.15;81.22;101286.16;5034807;28;20021;-80
2022/05/30 05:25:50;;;;;;;16.13;6.82;;;;;;;9.16;81.73;101285.19;5034722;28;20102;-80
2022/05/30 05:28:16;;;;;;;12.50;7.20;;;;;;;9.22;81.24;101293.59;5040850;28;20029;-80
2022/05/30 05:30:43;;;;;;;14.50;6.88;;;;;;;9.28;80.46;101294.19;5035212;28;20061;-80
2022/05/30 05:33:09;;;;;;;13.43;7.05;;;;;;;9.37;80.80;101289.13;5035284;28;20038;-80
2022/05/30 05:35:40;;;;;;;19.80;7.38;;;;;;;9.48;80.86;101292.91;5035865;28;20018;-80
2022/05/30 05:38:05;;;;;;;16.92;7.43;;;;;;;9.53;80.78;101291.63;5045060;27;20082;-80
2022/05/30 05:40:31;;;;;;;16.57;6.50;;;;;;;9.59;80.59;101291.25;5034980;28;20048;-80
2022/05/30 05:42:56;;;;;;;13.38;7.38;;;;;;;9.64;80.28;101288.28;5035003;28;20368;-81
2022/05/30 05:45:22;;;;;;;14.50;6.53;;;;;;;9.77;79.13;101298.94;5035548;28;20041;-81
2022/05/30 05:47:47;;;;;;;14.77;5.77;;;;;;;9.95;79.22;101295.06;5023514;28;20046;-81
2022/05/30 05:50:12;;;;;;;14.13;6.43;;;;;;;10.12;79.08;101299.22;5044852;27;20288;-82
2022/05/30 05:52:38;;;;;;;14.20;4.50;;;;;;;10.29;76.12;101302.53;5035014;28;20096;-82
2022/05/30 05:55:03;;;;;;;14.02;5.03;;;;;;;10.40;75.18;101294.75;5038561;28;20026;-82
2022/05/30 05:57:29;;;;;;;11.27;4.90;;;;;;;10.54;75.88;101297.31;5034914;28;20048;-81
2022/05/30 05:59:54;;;;;;;12.38;4.95;;;;;;;10.74;76.64;101297.69;5034266;28;20183;-81
2022/05/30 06:02:22;;;;;;;9.05;4.25;;;;;;;11.04;73.33;101308.00;5035083;28;20037;-79
2022/05/30 06:04:51;;;;;;;9.90;5.05;;;;;;;11.30;74.26;101299.94;5035068;28;20039;-80
2022/05/30 06:07:17;;;;;;;;;;;;;;;11.53;75.18;101302.75;5038670;28;20022;-81
2022/05/30 06:09:42;;;;;;;9.63;3.60;;;;;;;11.69;69.93;101305.97;5037972;28;19906;-81
2022/05/30 06:12:08;;;;;;;10.07;3.60;;;;;;;11.95;69.24;101304.06;5048103;27;20029;-81
2022/05/30 06:14:33;;;;;;;9.80;3.83;;;;;;;12.15;68.27;101307.88;5036480;28;20308;-82
2022/05/30 06:16:59;;;;;;;6.80;3.30;;;;;;;12.33;67.23;101302.97;5035281;28;20101;-82
2022/05/30 06:19:28;;;;;;;9.63;3.33;;;;;;;12.58;68.04;101301.91;5018895;28;20018;-82
2022/05/30 06:21:54;;;;;;;11.68;4.13;;;;;;;12.83;66.50;101301.81;5031929;28;20284;-82
2022/05/30 06:24:19;;;;;;;6.35;3.17;;;;;;;13.05;64.86;101298.28;5040542;27;20080;-82
2022/05/30 06:26:45;;;;;;;9.10;2.65;;;;;;;13.19;62.16;101303.38;5036789;28;20022;-82
2022/05/30 06:29:14;;;;;;;10.13;3.00;;;;;;;13.33;62.52;101302.28;5044258;27;20026;-82
2022/05/30 06:31:40;;;;;;;11.15;2.97;;;;;;;13.55;60.98;101303.19;5024400;28;20034;-82
2022/05/30 06:34:06;;;;;;;6.75;2.80;;;;;;;13.68;59.81;101294.03;5037849;28;20063;-82
2022/05/30 06:36:31;;;;;;;5.88;2.70;;;;;;;13.85;60.29;101302.50;5027518;28;20049;-81
2022/05/30 06:38:57;;;;;;;9.30;2.70;;;;;;;14.13;60.34;101298.34;5027500;28;20042;-81
2022/05/30 06:41:25;;;;;;;7.88;3.05;;;;;;;14.31;58.72;101305.78;5037766;28;20034;-81
2022/05/30 06:43:52;;;;;;;7.95;2.92;;;;;;;14.44;57.66;101304.59;5028579;28;20010;-82
2022/05/30 06:46:18;;;;;;;7.60;2.67;;;;;;;14.73;57.73;101306.63;5031960;28;20073;-81
2022/05/30 06:48:46;;;;;;;5.85;2.40;;;;;;;14.94;57.11;101303.91;5024087;28;20040;-81
2022/05/30 06:51:14;;;;;;;7.68;2.35;;;;;;;15.10;54.92;101306.06;5040848;27;20038;-82
2022/05/30 06:53:46;;;;;;;7.07;2.60;;;;;;;15.24;53.13;101307.53;5037249;28;20037;-78
2022/05/30 06:56:17;;;;;;;7.57;2.38;;;;;;;15.47;54.94;101307.28;5035203;28;20021;-76
2022/05/30 06:58:47;;;;;;;8.40;2.03;;;;;;;15.64;54.13;101311.13;5034270;28;20034;-78
2022/05/30 07:01:13;;;;;;;5.90;2.13;;;;;;;15.93;53.36;101310.31;5036697;28;20021;-77
2022/05/30 07:03:39;;;;;;;9.07;1.52;;;;;;;16.12;52.41;101304.09;5018182;28;20027;-77
2022/05/30 07:06:10;;;;;;;5.10;1.80;;;;;;;16.12;50.55;101313.00;5019477;28;20010;-77
2022/05/30 07:08:35;;;;;;;4.95;1.73;;;;;;;16.18;50.47;101299.00;5039041;28;20026;-78
2022/05/30 07:11:01;;;;;;;4.65;1.60;;;;;;;16.19;48.28;101306.06;5032544;28;20022;-76
2022/05/30 07:13:30;;;;;;;7.03;1.52;;;;;;;16.29;48.47;101300.69;5031993;28;20058;-77
2022/05/30 07:15:56;;;;;;;5.87;1.73;;;;;;;16.39;48.65;101306.06;5033622;28;20030;-78
2022/05/30 07:18:21;;;;;;;6.55;1.77;;;;;;;16.39;48.32;101311.41;5029106;28;20333;-77
2022/05/30 07:20:53;;;;;;;6.32;1.67;;;;;;;16.46;47.79;101310.66;5033985;28;20065;-76
2022/05/30 07:23:19;;;;;;;8.27;1.60;;;;;;;16.36;49.67;101311.69;5035030;28;20034;-77
2022/05/30 07:25:44;;;;;;;4.97;1.30;;;;;;;16.44;47.94;101307.28;5033549;28;20454;-78
2022/05/30 07:28:12;;;;;;;3.42;1.33;;;;;;;16.56;47.54;101315.19;5038152;28;20026;-77
2022/05/30 07:30:38;;;;;;;6.18;1.50;;;;;;;16.70;47.85;101322.75;5034280;28;20038;-76
2022/05/30 07:33:03;;;;;;;9.20;1.63;;;;;;;16.72;47.71;101318.09;5018832;28;20026;-78
2022/05/30 07:35:29;;;;;;;5.07;1.23;;;;;;;16.55;47.82;101324.19;5028439;28;20018;-78
2022/05/30 07:37:54;;;;;;;6.15;1.48;;;;;;;16.44;46.80;101317.19;5026023;28;20046;-77
2022/05/30 07:40:20;;;;;;;5.68;1.38;;;;;;;16.29;45.31;101314.09;5018557;28;20042;-77
2022/05/30 07:42:45;;;;;;;5.43;1.30;;;;;;;16.27;44.70;101308.03;5023011;28;20041;-78
2022/05/30 07:45:11;;;;;;;6.68;1.40;;;;;;;16.15;46.30;101314.53;5029011;28;20026;-77
2022/05/30 07:47:37;;;;;;;5.00;1.27;;;;;;;16.22;47.54;101311.16;5024345;28;20037;-77
2022/05/30 07:50:04;;;;;;;4.88;1.40;;;;;;;16.13;45.23;101308.47;5017830;28;20041;-77
2022/05/30 07:52:30;;;;;;;4.55;1.20;;;;;;;16.08;44.62;101311.56;5021798;28;20033;-78
2022/05/30 07:54:56;;;;;;;4.75;1.63;;;;;;;16.03;43.46;101301.28;5019180;28;20026;-78
2022/05/30 07:57:50;;;;;;;7.00;1.17;;;;;;;16.34;43.67;101294.91;5013256;28;20032;-78
2022/05/30 08:00:07;;;;;;;2.60;1.25;;;;;;;16.67;44.94;101301.59;5010374;28;20038;-78
2022/05/30 08:02:32;;;;;;;3.45;1.20;;;;;;;16.73;41.10;101301.00;5008561;28;20034;-77
2022/05/30 08:04:58;;;;;;;3.97;1.20;;;;;;;17.21;42.83;101299.13;5023277;28;20108;-78
2022/05/30 08:07:23;;;;;;;6.20;1.43;;;;;;;17.49;41.62;101305.31;5014722;28;20284;-78
2022/05/30 08:09:48;;;;;;;2.20;1.20;;;;;;;17.84;39.18;101298.25;5008206;28;20351;-77
2022/05/30 08:12:14;;;;;;;3.07;1.20;;;;;;;18.33;40.95;101299.69;5018339;28;20054;-78
2022/05/30 08:14:39;;;;;;;5.60;1.10;;;;;;;18.76;41.25;101298.78;5001278;28;20281;-78
2022/05/30 08:17:05;;;;;;;3.47;1.13;;;;;;;18.79;39.47;101294.94;5023190;28;20033;-78
2022/05/30 08:19:31;;;;;;;5.43;1.20;;;;;;;18.62;39.75;101302.06;5025512;28;20026;-77
2022/05/30 08:22:05;;;;;;;4.82;1.70;;;;;;;18.58;40.93;101301.53;5033647;28;20010;-79
2022/05/30 08:24:35;;;;;;;2.70;1.17;;;;;;;18.32;40.08;101306.91;5036303;28;20014;-80
2022/05/30 08:27:02;;;;;;;5.05;1.30;;;;;;;18.10;39.84;101308.25;5036402;28;20022;-80
2022/05/30 08:29:27;;;;;;;4.50;1.23;;;;;;;17.82;40.85;101308.31;5039265;27;20021;-80
2022/05/30 08:31:53;;;;;;;4.53;1.30;;;;;;;17.68;40.59;101309.69;5037784;28;20026;-80
2022/05/30 08:34:18;;;;;;;4.57;1.25;;;;;;;17.59;40.78;101307.09;5035466;28;20288;-80
2022/05/30 08:36:44;;;;;;;5.20;1.40;;;;;;;17.52;42.56;101306.81;5035934;28;20018;-80
2022/05/30 08:41:54;;;;;;;7.13;1.48;;;;;;;17.34;43.14;101312.19;5035530;28;20380;-81
2022/05/30 08:44:20;;;;;;;4.45;1.30;;;;;;;17.31;43.64;101315.19;5035263;28;20018;-81
2022/05/30 08:47:02;;;;;;;6.72;1.52;;;;;;;17.22;43.44;101316.06;5033281;27;20033;-81
2022/05/30 08:49:34;;;;;;;6.22;1.13;;;;;;;17.16;42.92;101322.88;5035254;28;20032;-81
2022/05/30 08:52:28;;;;;;;3.05;1.33;;;;;;;17.22;42.05;101316.06;5035902;28;20021;-80
2022/05/30 08:55:24;;;;;;;3.55;1.33;;;;;;;17.62;42.49;101318.38;5036181;28;20029;-80
2022/05/30 08:58:18;;;;;;;4.60;1.42;;;;;;;18.00;42.35;101315.56;5039019;27;20028;-80
2022/05/30 09:00:56;;;;;;;5.35;1.52;;;;;;;18.29;40.33;101318.00;5032359;28;20018;-80
2022/05/30 09:03:43;;;;;;;2.72;1.15;;;;;;;18.68;39.15;101309.47;5034436;28;20024;-81
2022/05/30 09:06:16;;;;;;;3.42;1.08;;;;;;;18.89;37.61;101313.69;5025318;28;20030;-80
2022/05/30 09:08:45;;;;;;;5.20;1.17;;;;;;;19.33;38.16;101318.91;5035532;28;20033;-80
2022/05/30 09:11:37;;;;;;;4.72;1.45;;;;;;;19.57;39.23;101312.75;5035222;28;20044;-80
2022/05/30 09:14:17;;;;;;;2.55;0.90;;;;;;;19.97;36.07;101311.13;5034298;28;20045;-81
2022/05/30 09:16:51;;;;;;;4.38;1.25;;;;;;;20.28;36.57;101311.31;5035235;28;20033;-81
2022/05/30 09:19:21;;;;;;;3.50;1.20;;;;;;;20.38;33.66;101313.78;5034417;28;20045;-81
2022/05/30 09:21:47;;;;;;;2.78;1.45;;;;;;;20.38;33.88;101315.66;5034717;28;20026;-81
2022/05/30 09:24:15;;;;;;;3.80;1.25;;;;;;;20.64;36.95;101305.53;5034933;28;20101;-81
2022/05/30 09:26:40;;;;;;;4.43;1.67;;;;;;;20.72;35.38;101310.06;5033998;28;20022;-81
2022/05/30 09:29:13;;;;;;;2.78;0.90;;;;;;;20.50;34.16;101306.19;5033958;28;20089;-81
2022/05/30 09:32:19;;;;;;;1.88;1.10;;;;;;;20.47;36.18;101303.84;5032054;28;20029;-82
2022/05/30 09:34:51;;;;;;;3.08;0.90;;;;;;;20.07;34.18;101311.81;5037008;28;20092;-82
2022/05/30 09:37:30;;;;;;;3.83;0.95;;;;;;;19.75;35.48;101309.91;5034331;28;20010;-82
2022/05/30 09:39:57;;;;;;;3.38;1.10;;;;;;;19.54;35.58;101313.91;5033592;28;20029;-82
2022/05/30 09:42:32;;;;;;;3.53;1.40;;;;;;;19.44;35.14;101310.50;5033234;28;20014;-82
2022/05/30 09:45:07;;;;;;;5.38;1.25;;;;;;;19.30;36.45;101308.44;5035828;28;20034;-82
2022/05/30 09:47:33;;;;;;;3.63;1.30;;;;;;;19.21;36.09;101318.34;5038488;28;20048;-82
2022/05/30 09:50:12;;;;;;;5.32;1.40;;;;;;;19.22;38.13;101315.50;5037798;28;20022;-82
2022/05/30 09:52:39;;;;;;;4.65;1.15;;;;;;;19.16;36.96;101310.75;5037968;28;20021;-81
2022/05/30 09:55:24;;;;;;;3.95;1.52;;;;;;;19.07;37.67;101310.88;5038077;28;20018;-81
2022/05/30 09:57:53;;;;;;;4.70;1.35;;;;;;;18.70;38.20;101315.53;5036319;28;20029;-81
2022/05/30 10:00:28;;;;;;;5.28;1.50;;;;;;;18.64;38.61;101317.03;5034351;28;20010;-81
2022/05/30 10:03:03;;;;;;;5.95;1.52;;;;;;;18.68;38.88;101313.03;5037990;28;20037;-80
2022/05/30 10:05:32;;;;;;;4.15;1.25;;;;;;;18.66;37.67;101311.50;5035772;28;20090;-77
2022/05/30 10:08:06;;;;;;;2.70;1.23;;;;;;;18.41;38.25;101319.41;5032975;28;20021;-78
2022/05/30 10:10:46;;;;;;;7.20;1.25;;;;;;;18.42;38.43;101312.19;5049010;28;20022;-77
2022/05/30 10:13:12;;;;;;;5.70;1.33;;;;;;;18.66;37.60;101309.66;5029450;28;20018;-77
2022/05/30 10:15:53;;;;;;;5.60;1.35;;;;;;;19.02;37.92;101309.53;5032986;28;20105;-78
2022/05/30 10:18:27;;;;;;;3.55;1.30;;;;;;;19.46;36.28;101307.66;5039163;28;20034;-79
2022/05/30 10:21:01;;;;;;;1.88;1.13;;;;;;;19.71;36.24;101309.38;5057798;28;20057;-79
2022/05/30 10:30:15;;;;;;;5.03;1.30;;;;;;;20.96;35.83;101311.81;5024491;28;20139;-80
2022/05/30 10:32:49;;;;;;;3.75;1.20;;;;;;;21.52;34.68;101305.53;5021141;28;20041;-78
2022/05/30 10:36:00;;;;;;;2.88;1.10;;;;;;;21.91;33.75;101302.69;5032001;28;20010;-76
2022/05/30 10:38:44;;;;;;;2.70;0.90;;;;;;;22.24;30.65;101307.00;5115956;28;20063;-78
2022/05/30 10:41:31;;;;;;;2.47;1.08;;;;;;;22.44;31.65;101310.06;5029713;28;20050;-80
2022/05/30 10:44:08;;;;;;;2.45;0.95;;;;;;;22.52;30.54;101312.69;5017651;28;20031;-81
2022/05/30 10:46:56;;;;;;;1.48;0.85;;;;;;;22.98;27.98;101311.63;5033067;28;20025;-78
2022/05/30 10:49:31;;;;;;;2.73;1.00;;;;;;;22.84;26.15;101316.88;5033008;28;20034;-80
2022/05/30 10:52:04;;;;;;;3.92;1.13;;;;;;;22.89;27.30;101311.72;5035352;28;20014;-79
2022/05/30 10:54:34;;;;;;;2.55;1.30;;;;;;;22.98;29.16;101315.22;5034835;28;20053;-80
2022/05/30 10:57:06;;;;;;;5.80;1.27;;;;;;;22.50;29.07;101314.72;5037172;28;20022;-81
2022/05/30 10:59:38;;;;;;;3.50;1.27;;;;;;;22.21;28.67;101308.19;5037845;28;20051;-82
2022/05/30 11:02:08;;;;;;;3.67;1.10;;;;;;;21.96;29.42;101318.38;5036932;28;20021;-82
2022/05/30 11:04:52;;;;;;;2.13;0.80;;;;;;;22.04;31.34;101318.31;5026773;28;20034;-81
2022/05/30 11:07:24;;;;;;;7.25;0.95;;;;;;;21.79;31.10;101320.38;5029261;27;20041;-80
2022/05/30 11:09:56;;;;;;;5.43;1.23;;;;;;;21.50;33.33;101319.22;5047223;27;20080;-81
2022/05/30 11:12:34;;;;;;;4.95;1.48;;;;;;;21.34;34.09;101321.97;5038532;27;20104;-81
2022/05/30 11:15:24;;;;;;;5.93;1.90;;;;;;;21.03;35.43;101317.38;5021992;28;20033;-81
2022/05/30 11:18:01;;;;;;;5.63;1.60;;;;;;;20.88;34.12;101325.34;5022778;28;20039;-81
2022/05/30 11:20:36;;;;;;;5.18;1.58;;;;;;;20.50;35.97;101323.25;5030651;28;20011;-81
2022/05/30 11:23:06;;;;;;;4.72;2.33;;;;;;;20.08;35.26;101315.34;5024655;27;20039;-81
2022/05/30 11:25:55;;;;;;;6.60;2.30;;;;;;;20.01;36.71;101322.44;5034376;28;20028;-81
2022/05/30 11:28:45;;;;;;;6.88;2.05;;;;;;;19.67;35.51;101324.22;5035223;28;20025;-81
2022/05/30 11:31:26;;;;;;;6.32;1.67;;;;;;;19.54;37.50;101318.47;5025326;28;20074;-81
2022/05/30 11:34:03;;;;;;;5.43;1.80;;;;;;;19.42;37.65;101326.84;5036076;28;20025;-81
2022/05/30 11:36:38;;;;;;;3.67;1.27;;;;;;;19.46;37.22;101329.22;5044335;27;20009;-81
2022/05/30 11:39:23;;;;;;;4.03;1.65;;;;;;;19.39;36.95;101323.63;5038091;27;20063;-81
2022/05/30 11:42:21;;;;;;;4.57;1.90;;;;;;;19.33;37.28;101322.41;5037073;28;20010;-81
2022/05/30 11:44:57;;;;;;;8.15;1.83;;;;;;;19.15;36.96;101325.25;5039648;27;20042;-82
2022/05/30 11:47:56;;;;;;;5.75;1.40;;;;;;;19.06;37.41;101325.38;5041036;27;20049;-82
2022/05/30 11:50:33;;;;;;;3.55;1.42;;;;;;;18.86;37.09;101323.75;5029561;28;20037;-82
2022/05/30 11:53:14;;;;;;;3.75;1.30;;;;;;;18.87;36.94;101330.00;5036046;28;20137;-82